»·PEaware :: N198JT KDEW-KELN

N198JT :: KDEW-KELN

FLIGHT INFORMATION

Flight Status: Arrived
Operator: Privately registered:
United States
More flights under this callsign
Pilot: Jeremy T. (18871)
Aircraft: PIPER PA-24 COMMANCHE
(PA24)
More flights by this aircraft type
Origin: KDEW Deer Park
United States
Destination: KELN Bowers
United States
More flights between these airports :: More routes between these airports
Route:
File this flight plan on PilotEdge
Remarks:
Altitude:
(Current/Filed)
6,500ft
Speed:
(Current/Filed)
150kts
Departed: 18-Apr-20 03:44 PM
Arrived: 18-Apr-20 04:43 PM
Distance/Time
Traveled:
138nm/0:58
Distance/Time
To Go:
Arrived

Flight Plot

Page will automatically refresh every two minutes.


Map Options




Map Legend


Flown Route
Filed Route
Departure Airport
Arrival Airport
Navaid (VOR, NDB)
Fix

Horizontal Profiles

Position Reports

Time Latitude Longitude Heading Altitude Ground
Speed
18-Apr-20 15:29 47.964615 -117.433948 179 2203ft 0kts
18-Apr-20 15:30 47.964613 -117.433948 179 2203ft 0kts
18-Apr-20 15:31 47.964611 -117.433948 179 2203ft 0kts
18-Apr-20 15:32 47.964608 -117.433948 179 2203ft 0kts
18-Apr-20 15:33 47.964606 -117.433948 179 2203ft 0kts
18-Apr-20 15:34 47.964603 -117.433948 179 2203ft 0kts
18-Apr-20 15:35 47.964601 -117.433948 179 2203ft 0kts
18-Apr-20 15:36 47.964598 -117.433947 179 2203ft 0kts
18-Apr-20 15:37 47.965372 -117.433275 4 2203ft 13kts
18-Apr-20 15:38 47.971134 -117.433299 359 2203ft 25kts
18-Apr-20 15:39 47.976877 -117.432122 87 2203ft 11kts
18-Apr-20 15:40 47.976881 -117.431990 86 2203ft 0kts
18-Apr-20 15:41 47.976882 -117.431981 86 2203ft 0kts
18-Apr-20 15:42 47.976877 -117.431819 93 2203ft 6kts
18-Apr-20 15:43 47.961478 -117.430320 181 2559ft 105kts
18-Apr-20 15:44 47.940374 -117.460297 230 3558ft 112kts
18-Apr-20 15:45 47.922229 -117.498963 235 4588ft 115kts
18-Apr-20 15:46 47.902049 -117.535899 222 5544ft 119kts
18-Apr-20 15:47 47.877439 -117.568558 223 6518ft 119kts
18-Apr-20 15:48 47.848882 -117.608217 223 6597ft 157kts
18-Apr-20 15:49 47.815980 -117.653536 223 6482ft 163kts
18-Apr-20 15:50 47.787693 -117.705755 234 6453ft 163kts
18-Apr-20 15:51 47.760836 -117.760238 235 6453ft 163kts
18-Apr-20 15:52 47.734984 -117.816042 237 6452ft 163kts
18-Apr-20 15:53 47.710765 -117.873243 241 6452ft 163kts
18-Apr-20 15:54 47.688224 -117.932065 241 6453ft 163kts
18-Apr-20 15:55 47.665798 -117.990937 241 6452ft 164kts
18-Apr-20 15:56 47.643467 -118.049662 242 6453ft 163kts
18-Apr-20 15:57 47.621665 -118.109194 242 6453ft 163kts
18-Apr-20 15:58 47.600008 -118.168412 242 6454ft 163kts
18-Apr-20 15:59 47.579322 -118.228177 244 6454ft 163kts
18-Apr-20 16:00 47.559263 -118.288381 244 6455ft 163kts
18-Apr-20 16:01 47.539200 -118.348596 245 6452ft 163kts
18-Apr-20 16:02 47.519855 -118.409307 245 6451ft 162kts
18-Apr-20 16:03 47.500516 -118.469790 245 6451ft 162kts
18-Apr-20 16:04 47.481364 -118.529890 245 6447ft 160kts
18-Apr-20 16:05 47.463135 -118.588050 246 6435ft 150kts
18-Apr-20 16:06 47.446018 -118.644087 246 6443ft 150kts
18-Apr-20 16:07 47.428733 -118.700712 246 6445ft 151kts
18-Apr-20 16:08 47.411496 -118.757204 246 6447ft 151kts
18-Apr-20 16:09 47.391656 -118.812472 242 6446ft 152kts
18-Apr-20 16:10 47.371654 -118.867455 242 6454ft 152kts
18-Apr-20 16:11 47.351235 -118.923741 242 6459ft 157kts
18-Apr-20 16:12 47.330529 -118.980797 242 6458ft 157kts
18-Apr-20 16:13 47.310032 -119.037424 242 6459ft 156kts
18-Apr-20 16:14 47.289445 -119.094214 242 6457ft 156kts
18-Apr-20 16:15 47.268958 -119.150912 242 6456ft 156kts
18-Apr-20 16:16 47.248498 -119.207424 242 6457ft 156kts
18-Apr-20 16:17 47.228055 -119.264015 242 6458ft 156kts
18-Apr-20 16:18 47.207567 -119.320681 242 6458ft 156kts
18-Apr-20 16:19 47.198373 -119.382542 263 6459ft 156kts
18-Apr-20 16:20 47.191041 -119.445461 251 6456ft 156kts
18-Apr-20 16:21 47.177587 -119.506226 252 6454ft 156kts
18-Apr-20 16:22 47.164466 -119.567020 252 6449ft 156kts
18-Apr-20 16:23 47.150934 -119.627782 252 6450ft 156kts
18-Apr-20 16:24 47.137734 -119.688648 253 6450ft 156kts
18-Apr-20 16:25 47.124338 -119.749466 252 6451ft 156kts
18-Apr-20 16:26 47.111078 -119.810276 253 6453ft 156kts
18-Apr-20 16:27 47.097801 -119.871051 252 6408ft 154kts
18-Apr-20 16:28 47.084582 -119.931474 252 6084ft 156kts
18-Apr-20 16:29 47.071364 -119.992364 252 5585ft 155kts
18-Apr-20 16:30 47.058415 -120.052589 252 5118ft 155kts
18-Apr-20 16:31 47.045773 -120.112665 252 4767ft 152kts
18-Apr-20 16:32 47.034394 -120.173738 267 4466ft 157kts
18-Apr-20 16:33 47.032856 -120.236685 267 4511ft 153kts
18-Apr-20 16:34 47.014867 -120.290766 226 4453ft 150kts
18-Apr-20 16:35 46.988070 -120.336122 239 3950ft 140kts
18-Apr-20 16:36 46.975081 -120.383531 271 3485ft 120kts
18-Apr-20 16:37 46.981014 -120.429209 291 3450ft 109kts
18-Apr-20 16:38 46.995126 -120.463759 301 2981ft 82kts
18-Apr-20 16:39 47.008181 -120.487007 306 2386ft 69kts
18-Apr-20 16:40 47.020547 -120.506578 312 2048ft 61kts
18-Apr-20 16:41 47.031600 -120.523856 313 1770ft 47kts
18-Apr-20 16:42 47.035742 -120.530947 229 1766ft 8kts
18-Apr-20 16:43 47.034120 -120.531967 201 1766ft 13kts
18-Apr-20 16:44 47.029746 -120.534103 174 1766ft 0kts
18-Apr-20 16:45 47.029743 -120.534103 174 1766ft 0kts
18-Apr-20 16:46 47.029743 -120.534103 174 1766ft 0kts
18-Apr-20 16:47 47.029743 -120.534103 174 1766ft 0kts
18-Apr-20 16:48 47.029743 -120.534103 174 1766ft 0kts

Navigation Log

Ident Type
Flight plan parsing failed, navigation log unavailable